Time;durP1;ratioP1;P1;durP2;ratioP2;P2;SDS_P1;SDS_P2;PMS_P1;PMS_P2;Temp;Humidity;BMP_temperature;BMP_pressure;BME280_temperature;BME280_humidity;BME280_pressure;Samples;Min_cycle;Max_cycle;Signal;HPM_P1;HPM_P2
2021/05/20 00:02:22;;;;;;;36.77;29.00;;;9.70;99.90;;;;;;6249077;23;20418;-64
2021/05/20 00:04:49;;;;;;;38.83;28.97;;;9.70;99.90;;;;;;6246009;23;20537;-64
2021/05/20 00:07:15;;;;;;;34.50;27.97;;;9.70;99.90;;;;;;6249546;23;20828;-64
2021/05/20 00:09:45;;;;;;;35.10;28.10;;;9.70;99.90;;;;;;6249533;23;20396;-64
2021/05/20 00:12:12;;;;;;;36.57;31.40;;;9.70;99.90;;;;;;6249924;23;20418;-64
2021/05/20 00:14:42;;;;;;;40.03;30.90;;;9.70;99.90;;;;;;6249224;23;20827;-64
2021/05/20 00:17:12;;;;;;;40.90;30.97;;;9.70;99.90;;;;;;6249309;23;20418;-64
2021/05/20 00:19:38;;;;;;;41.33;33.03;;;9.70;99.90;;;;;;6249121;23;20420;-64
2021/05/20 00:22:05;;;;;;;43.40;32.63;;;9.70;99.90;;;;;;6249133;23;20862;-64
2021/05/20 00:24:34;;;;;;;45.00;32.67;;;9.70;99.90;;;;;;6249145;23;20410;-64
2021/05/20 00:27:00;;;;;;;39.33;32.00;;;9.70;99.90;;;;;;6249324;23;20400;-64
2021/05/20 00:29:27;;;;;;;40.90;32.50;;;9.70;99.90;;;;;;6249454;23;20418;-64
2021/05/20 00:31:53;;;;;;;37.97;30.10;;;9.70;99.90;;;;;;6248912;23;20476;-64
2021/05/20 00:34:22;;;;;;;38.03;30.80;;;9.70;99.90;;;;;;6249030;23;20409;-64
2021/05/20 00:36:49;;;;;;;39.87;31.83;;;9.70;99.90;;;;;;6249865;23;20492;-64
2021/05/20 00:39:21;;;;;;;44.23;31.60;;;9.70;99.90;;;;;;6249348;23;20392;-64
2021/05/20 00:41:48;;;;;;;39.43;31.57;;;9.80;99.90;;;;;;6248722;23;20418;-64
2021/05/20 00:44:15;;;;;;;38.20;34.00;;;9.80;99.90;;;;;;6249031;23;20419;-64
2021/05/20 00:46:41;;;;;;;36.73;30.00;;;9.80;99.90;;;;;;6249488;23;20422;-64
2021/05/20 00:49:10;;;;;;;37.23;31.50;;;9.80;99.90;;;;;;6249402;23;20453;-64
2021/05/20 00:51:43;;;;;;;40.47;33.57;;;9.80;99.90;;;;;;6248487;23;20425;-64
2021/05/20 00:54:10;;;;;;;38.93;31.90;;;9.90;99.90;;;;;;6249322;23;20700;-64
2021/05/20 00:56:39;;;;;;;39.53;32.37;;;9.80;99.90;;;;;;6249151;23;20445;-64
2021/05/20 00:59:06;;;;;;;39.73;31.07;;;9.80;99.90;;;;;;6249637;23;20424;-64
2021/05/20 01:01:34;;;;;;;39.10;32.70;;;9.90;99.90;;;;;;6248455;23;20423;-64
2021/05/20 01:04:00;;;;;;;38.17;32.43;;;9.80;99.90;;;;;;6248078;23;20445;-64
2021/05/20 01:06:27;;;;;;;44.07;35.00;;;9.80;99.90;;;;;;6247236;23;20418;-64
2021/05/20 01:08:57;;;;;;;42.47;35.10;;;9.80;99.90;;;;;;6248498;23;20753;-64
2021/05/20 01:11:26;;;;;;;41.00;34.73;;;9.70;99.90;;;;;;6249058;23;20835;-64
2021/05/20 01:13:53;;;;;;;41.83;33.83;;;9.70;99.90;;;;;;6248690;23;20524;-64
2021/05/20 01:16:20;;;;;;;41.40;33.90;;;9.70;99.90;;;;;;6248335;23;20422;-64
2021/05/20 01:18:46;;;;;;;39.70;33.57;;;9.70;99.90;;;;;;6249529;23;20414;-64
2021/05/20 01:21:15;;;;;;;38.30;32.37;;;9.70;99.90;;;;;;6249061;23;20400;-64
2021/05/20 01:23:42;;;;;;;34.80;30.20;;;9.80;99.90;;;;;;6248590;23;20440;-64
2021/05/20 01:26:10;;;;;;;36.30;31.47;;;9.80;99.90;;;;;;6248732;23;20749;-64
2021/05/20 01:28:36;;;;;;;35.33;29.70;;;9.80;99.90;;;;;;6248439;23;20418;-64
2021/05/20 01:31:04;;;;;;;34.80;29.60;;;9.80;99.90;;;;;;6248775;23;20414;-64
2021/05/20 01:33:33;;;;;;;35.57;31.37;;;9.80;99.90;;;;;;6248363;23;20937;-64
2021/05/20 01:35:59;;;;;;;39.03;31.20;;;9.80;99.90;;;;;;6248590;23;20865;-64
2021/05/20 01:41:12;;;;;;;45.20;34.80;;;9.80;99.90;;;;;;6248307;23;20468;-64
2021/05/20 01:43:41;;;;;;;51.40;37.47;;;9.80;99.90;;;;;;6248874;23;20410;-64
2021/05/20 01:46:09;;;;;;;46.90;36.07;;;9.80;99.90;;;;;;6248671;23;20432;-64
2021/05/20 01:48:37;;;;;;;48.00;37.67;;;9.70;99.90;;;;;;6248499;23;20471;-64
2021/05/20 01:51:06;;;;;;;49.57;37.30;;;9.70;99.90;;;;;;6249095;23;20417;-64
2021/05/20 01:53:45;;;;;;;51.07;38.97;;;9.70;99.90;;;;;;6248267;23;20903;-64
2021/05/20 01:56:15;;;;;;;59.07;41.70;;;9.60;99.90;;;;;;6248570;23;20805;-64
2021/05/20 01:58:42;;;;;;;70.30;42.10;;;9.70;99.90;;;;;;6247567;23;20425;-64
2021/05/20 02:01:09;;;;;;;75.53;45.10;;;9.60;99.90;;;;;;6248434;23;20733;-64
2021/05/20 02:03:36;;;;;;;72.90;43.50;;;9.60;99.90;;;;;;6244796;23;20442;-64
2021/05/20 02:06:03;;;;;;;73.87;44.40;;;9.60;99.90;;;;;;6248075;23;20422;-64
2021/05/20 02:08:31;;;;;;;76.50;43.67;;;9.60;99.90;;;;;;6248378;23;20413;-64
2021/05/20 02:10:58;;;;;;;69.03;45.97;;;9.70;99.90;;;;;;6248460;23;20414;-64
2021/05/20 02:13:25;;;;;;;68.00;43.37;;;9.60;99.90;;;;;;6248454;22;20446;-64
2021/05/20 02:15:52;;;;;;;73.73;43.87;;;9.70;99.90;;;;;;6248433;22;20414;-64
2021/05/20 02:18:19;;;;;;;67.67;44.97;;;9.70;99.90;;;;;;6248478;23;20400;-64
2021/05/20 02:20:46;;;;;;;67.23;44.30;;;9.70;99.90;;;;;;6248425;23;20499;-64
2021/05/20 02:23:15;;;;;;;64.80;44.07;;;9.60;99.90;;;;;;6248602;23;20441;-66
2021/05/20 02:25:42;;;;;;;70.63;45.30;;;9.60;99.90;;;;;;6248644;22;20725;-64
2021/05/20 02:28:09;;;;;;;70.53;44.40;;;9.60;99.90;;;;;;6248181;23;20938;-64
2021/05/20 02:30:36;;;;;;;71.63;45.57;;;9.70;99.90;;;;;;6248380;23;20843;-64
2021/05/20 02:33:04;;;;;;;69.30;42.40;;;9.70;99.90;;;;;;6248999;23;20481;-64
2021/05/20 02:35:31;;;;;;;78.40;46.43;;;9.70;99.90;;;;;;6247904;22;20858;-64
2021/05/20 02:37:57;;;;;;;83.70;48.67;;;9.70;99.90;;;;;;6248349;23;20422;-64
2021/05/20 02:40:24;;;;;;;76.47;47.10;;;9.70;99.90;;;;;;6247582;23;20422;-64
2021/05/20 02:42:54;;;;;;;78.53;47.07;;;9.70;99.90;;;;;;6248124;23;20426;-64
2021/05/20 02:45:23;;;;;;;64.90;43.80;;;9.70;99.90;;;;;;6247575;23;20813;-64
2021/05/20 02:47:53;;;;;;;67.20;40.57;;;9.70;99.90;;;;;;6247897;23;20429;-64
2021/05/20 02:50:22;;;;;;;72.13;44.23;;;9.60;99.90;;;;;;6247861;22;20446;-64
2021/05/20 02:52:49;;;;;;;65.40;41.03;;;9.50;99.90;;;;;;6248448;23;20422;-63
2021/05/20 02:55:19;;;;;;;70.77;42.10;;;9.50;99.90;;;;;;6247260;23;20395;-63
2021/05/20 02:57:48;;;;;;;76.30;47.43;;;9.50;99.90;;;;;;6248561;23;20847;-63
2021/05/20 03:00:18;;;;;;;65.93;40.77;;;9.60;99.90;;;;;;6247469;23;20513;-63
2021/05/20 03:02:47;;;;;;;58.70;38.07;;;9.60;99.90;;;;;;6246529;23;20594;-64
2021/05/20 03:05:13;;;;;;;61.23;39.90;;;9.50;99.90;;;;;;6247314;23;20441;-64
2021/05/20 03:07:40;;;;;;;64.33;41.37;;;9.50;99.90;;;;;;6248281;23;20707;-64
2021/05/20 03:10:09;;;;;;;65.03;39.13;;;9.50;99.90;;;;;;6248296;23;20861;-64
2021/05/20 03:12:36;;;;;;;70.53;42.27;;;9.50;99.90;;;;;;6248280;23;20425;-64
2021/05/20 03:15:04;;;;;;;72.40;42.77;;;9.50;99.90;;;;;;6247355;22;20445;-64
2021/05/20 03:17:33;;;;;;;68.17;43.03;;;9.50;99.90;;;;;;6247896;22;20418;-64
2021/05/20 03:20:00;;;;;;;59.50;39.57;;;9.40;99.90;;;;;;6247763;22;20761;-64
2021/05/20 03:22:27;;;;;;;68.30;41.93;;;9.40;99.90;;;;;;6247919;23;20499;-64
2021/05/20 03:24:54;;;;;;;68.83;42.03;;;9.40;99.90;;;;;;6248263;23;20418;-64
2021/05/20 03:27:21;;;;;;;70.90;41.67;;;9.40;99.90;;;;;;6248404;23;20455;-64
2021/05/20 03:29:47;;;;;;;74.70;42.87;;;9.40;99.90;;;;;;6249572;23;20893;-64
2021/05/20 03:32:14;;;;;;;69.07;42.20;;;9.50;99.90;;;;;;6250131;22;20428;-64
2021/05/20 03:34:41;;;;;;;59.73;39.93;;;9.50;99.90;;;;;;6249741;23;20428;-64
2021/05/20 03:37:08;;;;;;;74.20;44.40;;;9.50;99.90;;;;;;6250590;23;20413;-64
2021/05/20 03:39:35;;;;;;;66.60;41.53;;;9.50;99.90;;;;;;6249158;22;20419;-64
2021/05/20 03:42:02;;;;;;;69.20;41.87;;;9.50;99.90;;;;;;6249807;23;20908;-64
2021/05/20 03:44:30;;;;;;;73.73;42.37;;;9.40;99.90;;;;;;6249638;23;20428;-64
2021/05/20 03:46:59;;;;;;;68.40;40.43;;;9.50;99.90;;;;;;6249280;23;20422;-64
2021/05/20 03:49:26;;;;;;;74.57;43.33;;;9.40;99.90;;;;;;6249859;22;20432;-64
2021/05/20 03:51:52;;;;;;;74.00;41.53;;;9.40;99.90;;;;;;6249380;23;20403;-64
2021/05/20 03:54:20;;;;;;;74.00;44.13;;;9.40;99.90;;;;;;6248418;22;20504;-64
2021/05/20 03:56:49;;;;;;;74.17;41.40;;;9.40;99.90;;;;;;6249132;23;20424;-64
2021/05/20 03:59:15;;;;;;;80.30;44.63;;;9.40;99.90;;;;;;6249072;23;20450;-64
2021/05/20 04:01:42;;;;;;;74.63;41.97;;;9.50;99.90;;;;;;6248966;23;20425;-64
2021/05/20 04:04:09;;;;;;;75.27;43.80;;;9.50;99.90;;;;;;6246107;22;20887;-64
2021/05/20 04:06:35;;;;;;;77.10;42.70;;;9.50;99.90;;;;;;6248886;22;20420;-64
2021/05/20 04:09:03;;;;;;;68.33;41.60;;;9.60;99.90;;;;;;6249160;23;20879;-64
2021/05/20 04:11:33;;;;;;;66.20;42.50;;;9.60;99.90;;;;;;6249985;23;20418;-64
2021/05/20 04:14:00;;;;;;;76.90;44.30;;;9.70;99.90;;;;;;6249401;23;20441;-64
2021/05/20 04:16:27;;;;;;;62.73;38.90;;;9.70;99.90;;;;;;6248948;23;20393;-63
2021/05/20 04:18:54;;;;;;;60.97;38.70;;;9.60;99.90;;;;;;6249469;23;20425;-64
2021/05/20 04:21:20;;;;;;;54.73;35.23;;;9.50;99.90;;;;;;6249391;23;20433;-63
2021/05/20 04:23:51;;;;;;;61.50;35.17;;;9.50;99.90;;;;;;6248809;23;20862;-63
2021/05/20 04:26:19;;;;;;;55.40;34.07;;;9.50;99.90;;;;;;6248834;23;20421;-63
2021/05/20 04:28:48;;;;;;;59.23;36.40;;;9.50;99.90;;;;;;6249233;23;20421;-63
2021/05/20 04:31:15;;;;;;;57.53;35.83;;;9.60;99.90;;;;;;6249291;23;20426;-63
2021/05/20 04:33:41;;;;;;;69.73;38.40;;;9.60;99.90;;;;;;6248937;23;20461;-63
2021/05/20 04:36:08;;;;;;;67.80;39.17;;;9.60;99.90;;;;;;6248986;22;20421;-63
2021/05/20 04:38:35;;;;;;;62.23;38.63;;;9.60;99.90;;;;;;6248273;23;20418;-63
2021/05/20 04:41:01;;;;;;;60.10;37.60;;;9.70;99.90;;;;;;6249378;22;20425;-63
2021/05/20 04:43:28;;;;;;;66.47;39.83;;;9.80;99.90;;;;;;6248508;22;20889;-63
2021/05/20 04:45:55;;;;;;;61.30;38.73;;;9.80;99.90;;;;;;6248240;22;20400;-63
2021/05/20 04:48:22;;;;;;;61.60;36.77;;;9.90;99.90;;;;;;6249384;23;20418;-63
2021/05/20 04:50:48;;;;;;;55.87;39.00;;;9.90;99.90;;;;;;6249072;22;20422;-63
2021/05/20 04:53:15;;;;;;;52.33;33.87;;;9.80;99.90;;;;;;6247558;22;20442;-63
2021/05/20 04:55:42;;;;;;;51.73;34.90;;;9.80;99.90;;;;;;6248722;23;20441;-63
2021/05/20 04:58:08;;;;;;;51.30;33.93;;;9.70;99.90;;;;;;6248907;22;20818;-63
2021/05/20 05:00:35;;;;;;;48.40;31.70;;;9.70;99.90;;;;;;6248255;23;20459;-63
2021/05/20 05:03:02;;;;;;;50.70;31.87;;;9.80;99.90;;;;;;6246599;23;20929;-63
2021/05/20 05:05:29;;;;;;;47.30;32.93;;;9.90;99.90;;;;;;6248321;23;20516;-63
2021/05/20 05:07:56;;;;;;;46.20;31.97;;;9.80;99.90;;;;;;6248130;23;20426;-63
2021/05/20 05:10:22;;;;;;;51.20;34.50;;;9.80;99.90;;;;;;6248794;22;20839;-63
2021/05/20 05:12:49;;;;;;;48.60;32.30;;;9.80;99.90;;;;;;6248682;22;20422;-63
2021/05/20 05:15:15;;;;;;;45.00;31.57;;;9.80;99.90;;;;;;6248772;22;20454;-63
2021/05/20 05:17:42;;;;;;;44.03;31.53;;;9.90;99.90;;;;;;6248724;22;20422;-63
2021/05/20 05:20:11;;;;;;;49.93;32.00;;;10.00;99.90;;;;;;6248564;23;20470;-63
2021/05/20 05:22:43;;;;;;;49.90;34.27;;;10.10;99.90;;;;;;6248390;23;20524;-63
2021/05/20 05:25:10;;;;;;;52.17;34.43;;;10.20;99.90;;;;;;6248792;22;20425;-63
2021/05/20 05:27:37;;;;;;;48.30;33.53;;;10.20;99.90;;;;;;6247843;23;20424;-63
2021/05/20 05:30:06;;;;;;;49.60;32.63;;;10.20;99.90;;;;;;6248658;22;20426;-63
2021/05/20 05:32:32;;;;;;;43.13;32.03;;;10.30;99.90;;;;;;6248514;23;20453;-63
2021/05/20 05:34:59;;;;;;;40.90;31.83;;;10.30;99.90;;;;;;6248752;23;20508;-63
2021/05/20 05:37:26;;;;;;;44.47;31.87;;;10.30;99.90;;;;;;6248864;22;20856;-63
2021/05/20 05:39:53;;;;;;;44.83;33.37;;;10.40;99.90;;;;;;6248499;23;20537;-63
2021/05/20 05:42:25;;;;;;;42.90;33.83;;;10.40;99.90;;;;;;6248938;22;20414;-63
2021/05/20 05:44:51;;;;;;;44.27;34.20;;;10.50;99.90;;;;;;6248713;23;20468;-63
2021/05/20 05:47:18;;;;;;;47.60;35.47;;;10.70;99.90;;;;;;6249188;22;20417;-63
2021/05/20 05:49:46;;;;;;;43.87;35.90;;;10.80;99.90;;;;;;6248173;23;20417;-62
2021/05/20 05:52:19;;;;;;;44.47;35.13;;;10.70;99.90;;;;;;6248632;22;20426;-62
2021/05/20 05:54:49;;;;;;;44.37;36.00;;;10.80;99.90;;;;;;6247882;23;20453;-62
2021/05/20 05:57:18;;;;;;;47.17;35.30;;;10.70;99.90;;;;;;6248671;23;20422;-62
2021/05/20 05:59:49;;;;;;;44.20;34.00;;;10.70;99.90;;;;;;6248122;23;20901;-62
2021/05/20 06:02:17;;;;;;;44.67;33.80;;;10.90;99.90;;;;;;6248483;22;20806;-62
2021/05/20 06:04:49;;;;;;;47.50;35.47;;;11.10;99.90;;;;;;6246246;23;20442;-62
2021/05/20 06:07:19;;;;;;;48.00;35.70;;;11.20;99.90;;;;;;6249356;23;20422;-62
2021/05/20 06:09:47;;;;;;;45.00;35.27;;;11.40;99.90;;;;;;6247876;23;20700;-62
2021/05/20 06:12:13;;;;;;;43.73;34.30;;;11.40;99.90;;;;;;6247431;23;20422;-62
2021/05/20 06:14:42;;;;;;;51.67;35.50;;;11.20;99.90;;;;;;6246674;23;20508;-62
2021/05/20 06:17:09;;;;;;;51.60;36.27;;;11.20;99.90;;;;;;6247104;22;20462;-62
2021/05/20 06:19:36;;;;;;;50.40;36.87;;;11.20;99.90;;;;;;6246939;23;20428;-61
2021/05/20 06:22:03;;;;;;;48.33;35.20;;;11.30;99.90;;;;;;6247429;23;20414;-61
2021/05/20 06:24:29;;;;;;;44.77;34.37;;;11.50;99.90;;;;;;6248106;23;20422;-61
2021/05/20 06:27:00;;;;;;;46.77;34.90;;;11.90;99.90;;;;;;6248234;22;20678;-61
2021/05/20 06:29:30;;;;;;;43.97;35.50;;;12.00;99.90;;;;;;6248312;23;20403;-61
2021/05/20 06:31:57;;;;;;;46.47;35.30;;;12.10;99.90;;;;;;6247868;22;20945;-61
2021/05/20 06:34:24;;;;;;;44.67;33.67;;;12.00;99.90;;;;;;6247370;22;20457;-61
2021/05/20 06:36:51;;;;;;;48.27;33.63;;;12.00;99.90;;;;;;6248245;22;20414;-60
2021/05/20 06:39:17;;;;;;;42.07;32.50;;;11.80;99.90;;;;;;6248093;23;20425;-60
2021/05/20 06:41:44;;;;;;;46.03;34.30;;;12.10;99.90;;;;;;6247721;23;20418;-60
2021/05/20 06:44:14;;;;;;;47.97;36.33;;;12.40;99.90;;;;;;6247828;23;20410;-60
2021/05/20 06:46:41;;;;;;;42.40;31.73;;;12.50;99.90;;;;;;6247880;23;20417;-60
2021/05/20 06:49:08;;;;;;;45.90;33.23;;;12.50;99.90;;;;;;6248132;23;20389;-60
2021/05/20 06:51:35;;;;;;;45.70;32.93;;;12.30;99.90;;;;;;6247734;22;20589;-60
2021/05/20 06:54:01;;;;;;;46.13;34.40;;;12.40;99.90;;;;;;6247164;23;20428;-60
2021/05/20 06:56:29;;;;;;;44.30;33.50;;;12.60;99.90;;;;;;6247873;22;20422;-59
2021/05/20 07:01:45;;;;;;;40.63;31.33;;;12.60;99.90;;;;;;6267656;22;20915;-59
2021/05/20 07:04:12;;;;;;;46.17;33.03;;;12.60;99.90;;;;;;6277383;22;20749;-59
2021/05/20 07:06:39;;;;;;;52.57;35.73;;;12.90;99.90;;;;;;6280327;22;20405;-58
2021/05/20 07:09:06;;;;;;;45.60;33.87;;;13.00;99.90;;;;;;6280800;22;20523;-58
2021/05/20 07:11:36;;;;;;;54.77;34.30;;;13.10;99.90;;;;;;6280041;22;20420;-59
2021/05/20 07:14:05;;;;;;;50.57;38.07;;;13.50;99.90;;;;;;6280444;22;20497;-59
2021/05/20 07:16:32;;;;;;;46.07;35.10;;;13.80;99.90;;;;;;6280440;22;20424;-58
2021/05/20 07:19:00;;;;;;;45.50;36.20;;;13.70;99.90;;;;;;6280671;22;20470;-59
2021/05/20 07:21:31;;;;;;;47.40;36.20;;;13.60;99.90;;;;;;6280114;22;20446;-56
2021/05/20 07:24:00;;;;;;;42.37;35.00;;;13.90;99.90;;;;;;6280514;22;20417;-58
2021/05/20 07:26:27;;;;;;;42.13;35.17;;;13.80;99.90;;;;;;6278763;22;20880;-58
2021/05/20 07:28:53;;;;;;;40.33;33.00;;;13.60;99.90;;;;;;6280092;22;20417;-58
2021/05/20 07:31:23;;;;;;;39.50;32.17;;;13.20;99.90;;;;;;6280223;22;20752;-58
2021/05/20 07:33:49;;;;;;;35.83;31.90;;;12.80;99.90;;;;;;6279561;22;20475;-57
2021/05/20 07:36:17;;;;;;;39.13;31.13;;;12.70;99.90;;;;;;6280218;22;20468;-58
2021/05/20 07:38:46;;;;;;;33.63;28.97;;;12.40;99.90;;;;;;6280297;22;20855;-54
2021/05/20 07:41:16;;;;;;;34.80;28.70;;;12.50;99.90;;;;;;6280636;22;20532;-49
2021/05/20 07:43:43;;;;;;;30.63;26.90;;;12.80;99.90;;;;;;6279631;22;20415;-53
2021/05/20 07:46:09;;;;;;;30.30;25.70;;;13.10;99.90;;;;;;6279901;22;20425;-58
2021/05/20 07:48:38;;;;;;;33.30;27.50;;;13.50;99.90;;;;;;6280543;22;20471;-57
2021/05/20 07:51:07;;;;;;;32.23;25.90;;;13.50;99.90;;;;;;6280412;22;20894;-58
2021/05/20 07:53:38;;;;;;;26.70;23.23;;;13.50;99.90;;;;;;6279661;22;20445;-58
2021/05/20 07:56:06;;;;;;;27.90;24.93;;;13.20;99.90;;;;;;6279578;22;20477;-55
2021/05/20 07:58:32;;;;;;;27.50;21.97;;;12.90;99.90;;;;;;6280502;22;20427;-55
2021/05/20 08:01:01;;;;;;;26.80;22.43;;;13.10;99.90;;;;;;6280177;22;20398;-53
2021/05/20 08:03:31;;;;;;;21.23;19.10;;;13.60;99.90;;;;;;6277323;22;20488;-58
2021/05/20 08:06:02;;;;;;;22.00;19.60;;;14.40;99.90;;;;;;6279366;22;20417;-55
2021/05/20 08:08:34;;;;;;;20.30;18.30;;;14.60;99.90;;;;;;6280299;22;20403;-57
2021/05/20 08:11:03;;;;;;;18.60;16.77;;;14.40;99.90;;;;;;6280694;22;20475;-56
2021/05/20 08:13:31;;;;;;;20.23;18.23;;;14.70;99.90;;;;;;6279141;22;20710;-56
2021/05/20 08:16:01;;;;;;;20.20;18.10;;;14.70;99.90;;;;;;6279508;22;20842;-58
2021/05/20 08:18:29;;;;;;;21.70;19.53;;;14.60;99.90;;;;;;6279577;22;20428;-56
2021/05/20 08:20:56;;;;;;;21.07;19.07;;;14.60;99.90;;;;;;6280218;22;20804;-58
2021/05/20 08:23:25;;;;;;;22.00;19.60;;;14.50;99.90;;;;;;6279654;22;20424;-58
2021/05/20 08:25:53;;;;;;;25.03;21.37;;;13.90;99.90;;;;;;6278134;22;20417;-56
2021/05/20 08:28:20;;;;;;;25.00;22.40;;;13.50;99.90;;;;;;6279836;22;20427;-58
2021/05/20 08:30:51;;;;;;;28.53;24.47;;;13.40;99.90;;;;;;6279593;22;20420;-56
2021/05/20 08:33:18;;;;;;;26.97;24.07;;;13.40;99.90;;;;;;6279354;22;20442;-58
2021/05/20 08:35:44;;;;;;;26.40;23.53;;;13.10;99.90;;;;;;6279655;22;20417;-59
2021/05/20 08:38:12;;;;;;;29.57;26.40;;;13.00;99.90;;;;;;6279756;22;20421;-59
2021/05/20 08:40:40;;;;;;;31.47;26.67;;;13.00;99.90;;;;;;6279025;22;20416;-57
2021/05/20 08:43:07;;;;;;;32.80;28.03;;;12.90;99.90;;;;;;6279484;22;20421;-57
2021/05/20 08:45:35;;;;;;;34.27;27.60;;;12.70;99.90;;;;;;6279514;22;20827;-59
2021/05/20 08:48:02;;;;;;;34.67;28.33;;;12.60;99.90;;;;;;6278960;22;20422;-59
2021/05/20 08:50:31;;;;;;;33.33;27.63;;;12.40;99.90;;;;;;6279716;22;20846;-59
2021/05/20 08:52:58;;;;;;;29.87;26.10;;;12.40;99.90;;;;;;6279422;22;20413;-59
2021/05/20 08:55:28;;;;;;;29.70;24.93;;;12.30;99.90;;;;;;6279265;22;20449;-57
2021/05/20 08:57:55;;;;;;;27.23;24.33;;;12.40;99.90;;;;;;6278435;22;20856;-59
2021/05/20 09:00:23;;;;;;;32.17;27.07;;;12.50;99.90;;;;;;6279211;22;20421;-57
2021/05/20 09:02:51;;;;;;;29.77;26.03;;;12.30;99.90;;;;;;6277453;22;20425;-58
2021/05/20 09:05:21;;;;;;;31.63;28.20;;;12.20;99.90;;;;;;6278436;22;20409;-59
2021/05/20 09:07:55;;;;;;;31.43;27.63;;;12.20;99.90;;;;;;6278350;22;20413;-59
2021/05/20 09:10:25;;;;;;;32.73;27.97;;;12.30;99.90;;;;;;6279336;22;20495;-57
2021/05/20 09:12:53;;;;;;;34.80;28.80;;;12.40;99.90;;;;;;6279590;22;20467;-58
2021/05/20 09:15:26;;;;;;;33.80;27.97;;;12.50;99.90;;;;;;6278905;22;20468;-58
2021/05/20 09:17:55;;;;;;;32.23;28.07;;;12.60;99.90;;;;;;6279105;22;20417;-57
2021/05/20 09:20:34;;;;;;;31.30;27.37;;;12.70;99.90;;;;;;6279070;22;20425;-57
2021/05/20 09:23:06;;;;;;;29.47;25.77;;;12.70;99.90;;;;;;6278976;22;20417;-55
2021/05/20 09:25:35;;;;;;;30.70;27.20;;;12.80;99.90;;;;;;6277653;22;20428;-56
2021/05/20 09:28:02;;;;;;;36.70;27.77;;;12.80;99.90;;;;;;6278146;22;20421;-59
2021/05/20 09:30:29;;;;;;;32.90;26.70;;;12.80;99.90;;;;;;6278360;22;20417;-58
2021/05/20 09:33:04;;;;;;;31.33;26.60;;;12.80;99.90;;;;;;6278739;22;20395;-59
2021/05/20 09:35:36;;;;;;;28.70;24.97;;;12.90;99.90;;;;;;6279442;22;20535;-59
2021/05/20 09:38:10;;;;;;;33.00;28.77;;;13.10;99.90;;;;;;6279019;22;20812;-57
2021/05/20 09:40:39;;;;;;;30.90;27.00;;;13.00;99.90;;;;;;6279077;22;20474;-59
2021/05/20 09:43:16;;;;;;;27.57;24.60;;;13.10;99.90;;;;;;6279789;22;20417;-58
2021/05/20 09:45:43;;;;;;;28.83;24.07;;;13.30;99.90;;;;;;6278699;22;20401;-55
2021/05/20 09:48:11;;;;;;;29.00;24.50;;;13.50;99.90;;;;;;6278837;22;20419;-55
2021/05/20 09:50:41;;;;;;;26.67;22.80;;;13.60;99.90;;;;;;6279413;22;20424;-56
2021/05/20 09:53:11;;;;;;;28.30;24.10;;;13.50;99.90;;;;;;6278902;22;20421;-58
2021/05/20 09:55:44;;;;;;;26.87;23.90;;;13.80;99.90;;;;;;6278340;22;20449;-59
2021/05/20 09:58:11;;;;;;;26.53;23.50;;;14.20;99.90;;;;;;6278524;22;20424;-59
2021/05/20 10:00:39;;;;;;;24.23;21.63;;;14.50;99.90;;;;;;6278965;22;20417;-59
2021/05/20 10:03:11;;;;;;;25.37;22.50;;;14.40;99.90;;;;;;6276007;22;20696;-59
2021/05/20 10:05:39;;;;;;;29.20;22.40;;;14.50;99.90;;;;;;6277420;22;20464;-59
2021/05/20 10:08:07;;;;;;;27.23;23.30;;;14.80;99.90;;;;;;6278853;22;20425;-60
2021/05/20 10:10:37;;;;;;;23.87;21.57;;;15.10;99.90;;;;;;6278151;22;20402;-59
2021/05/20 10:13:05;;;;;;;25.93;21.83;;;15.80;99.90;;;;;;6277315;22;20490;-59
2021/05/20 10:15:36;;;;;;;27.67;23.30;;;16.20;99.90;;;;;;6277630;22;20913;-59
2021/05/20 10:18:07;;;;;;;27.97;21.83;;;16.10;99.90;;;;;;6278978;22;20703;-60
2021/05/20 10:20:35;;;;;;;25.57;22.83;;;16.60;99.90;;;;;;6278032;22;20421;-60
2021/05/20 10:23:06;;;;;;;21.70;19.53;;;17.20;99.80;;;;;;6278946;22;20428;-60
2021/05/20 10:25:33;;;;;;;22.10;20.10;;;17.30;96.80;;;;;;6278118;22;20854;-59
2021/05/20 10:28:00;;;;;;;21.80;19.70;;;18.00;95.50;;;;;;6278935;22;20417;-62
2021/05/20 10:30:26;;;;;;;23.50;21.33;;;19.00;92.00;;;;;;6278271;22;20417;-60
2021/05/20 10:32:58;;;;;;;23.53;21.33;;;19.40;88.50;;;;;;6278230;22;20850;-60
2021/05/20 10:35:42;;;;;;;23.17;21.00;;;19.50;88.70;;;;;;6278683;22;20452;-61
2021/05/20 10:38:13;;;;;;;22.37;20.27;;;19.80;85.70;;;;;;6278596;22;20465;-61
2021/05/20 10:40:40;;;;;;;23.00;21.00;;;19.70;82.60;;;;;;6278606;22;20682;-61
2021/05/20 10:43:12;;;;;;;23.27;21.17;;;18.80;84.10;;;;;;6278807;22;20425;-61
2021/05/20 10:45:40;;;;;;;20.17;18.30;;;18.80;87.30;;;;;;6278321;22;20425;-61
2021/05/20 10:48:26;;;;;;;23.00;20.90;;;18.50;82.70;;;;;;6278830;22;20892;-61
2021/05/20 10:51:16;;;;;;;22.30;19.20;;;18.10;82.90;;;;;;6277951;22;20779;-61
2021/05/20 10:53:54;;;;;;;21.13;19.27;;;17.60;86.30;;;;;;6277322;22;20424;-60
2021/05/20 10:56:57;;;;;;;21.50;19.50;;;17.10;88.90;;;;;;6277778;22;20423;-60
2021/05/20 10:59:43;;;;;;;20.53;18.67;;;17.00;91.40;;;;;;6278373;22;20507;-59
2021/05/20 11:02:50;;;;;;;18.80;17.00;;;17.10;92.50;;;;;;6277867;22;20456;-59
2021/05/20 11:05:56;;;;;;;17.37;14.10;;;18.20;90.90;;;;;;6277240;22;20485;-59
2021/05/20 11:08:53;;;;;;;15.63;14.33;;;19.00;82.10;;;;;;6278997;22;20432;-59
2021/05/20 11:11:58;;;;;;;13.60;12.23;;;19.60;79.50;;;;;;6277846;22;20447;-60
2021/05/20 11:14:50;;;;;;;13.60;12.30;;;19.60;73.20;;;;;;6278327;22;20611;-59
2021/05/20 11:17:47;;;;;;;11.70;10.70;;;18.90;70.60;;;;;;6277845;22;20420;-60
2021/05/20 11:20:42;;;;;;;11.53;10.57;;;19.40;70.80;;;;;;6277955;22;20846;-58
2021/05/20 11:23:29;;;;;;;12.27;11.27;;;19.40;66.60;;;;;;6278231;22;20417;-58
2021/05/20 11:26:15;;;;;;;12.23;11.07;;;19.40;69.70;;;;;;6278522;22;20523;-59
2021/05/20 11:28:57;;;;;;;10.60;9.70;;;19.60;69.40;;;;;;6278457;22;20417;-59
2021/05/20 11:31:25;;;;;;;11.87;10.97;;;20.10;70.00;;;;;;6278416;22;20421;-59
2021/05/20 11:34:24;;;;;;;8.93;8.23;;;20.30;66.00;;;;;;6277612;22;20739;-59
2021/05/20 11:36:52;;;;;;;11.50;10.40;;;20.50;62.60;;;;;;6277876;22;20424;-58
2021/05/20 11:39:21;;;;;;;10.50;9.67;;;20.80;64.00;;;;;;6278413;22;20421;-60
2021/05/20 11:41:50;;;;;;;10.20;9.30;;;20.90;61.90;;;;;;6277931;22;20440;-59
2021/05/20 11:44:19;;;;;;;10.50;9.70;;;20.00;63.10;;;;;;6277329;22;20413;-59
2021/05/20 11:46:48;;;;;;;10.90;9.83;;;19.60;64.50;;;;;;6278245;22;20473;-59
2021/05/20 11:49:19;;;;;;;9.57;8.77;;;19.50;66.50;;;;;;6278848;22;20719;-59
2021/05/20 11:51:57;;;;;;;10.43;9.53;;;20.10;63.00;;;;;;6279778;22;20428;-59
2021/05/20 11:54:29;;;;;;;10.47;9.57;;;20.80;62.70;;;;;;6278757;22;20455;-59
2021/05/20 11:56:58;;;;;;;9.17;8.30;;;21.40;59.40;;;;;;6279814;22;20421;-59
2021/05/20 11:59:45;;;;;;;9.33;8.73;;;21.90;60.60;;;;;;6278944;22;20421;-60
2021/05/20 12:02:14;;;;;;;10.80;9.20;;;21.60;56.90;;;;;;6277263;22;20477;-59
2021/05/20 12:04:55;;;;;;;11.53;8.13;;;21.20;57.10;;;;;;6273666;22;20494;-59
2021/05/20 12:07:23;;;;;;;7.63;7.03;;;21.30;57.20;;;;;;6278407;22;20519;-59
2021/05/20 12:09:50;;;;;;;8.63;7.80;;;20.90;57.50;;;;;;6279357;22;20413;-59
2021/05/20 12:12:22;;;;;;;9.57;8.77;;;20.50;55.50;;;;;;6279063;22;20854;-59
2021/05/20 12:14:49;;;;;;;9.90;8.90;;;20.30;57.40;;;;;;6278436;22;20488;-59
2021/05/20 12:17:21;;;;;;;9.03;8.33;;;19.90;58.60;;;;;;6278804;22;20417;-60
2021/05/20 12:19:49;;;;;;;12.33;8.47;;;19.30;57.90;;;;;;6277664;22;20427;-60
2021/05/20 12:22:21;;;;;;;8.53;7.60;;;19.80;58.50;;;;;;6278876;22;20500;-59
2021/05/20 12:24:52;;;;;;;7.93;7.23;;;20.70;57.10;;;;;;6279579;22;20418;-59
2021/05/20 12:27:24;;;;;;;7.30;6.80;;;21.10;56.50;;;;;;6280154;22;20464;-59
2021/05/20 12:29:53;;;;;;;8.00;7.17;;;21.60;55.00;;;;;;6279216;22;20700;-60
2021/05/20 13:09:54;;;;;;;6.83;6.23;;;21.20;51.60;;;;;;6273366;22;20548;-60
2021/05/20 13:12:27;;;;;;;6.97;6.47;;;21.00;50.60;;;;;;6279660;22;20452;-61
2021/05/20 13:15:01;;;;;;;7.27;6.50;;;20.90;51.30;;;;;;6278764;22;20889;-60
2021/05/20 13:17:33;;;;;;;5.80;5.37;;;21.00;52.50;;;;;;6279639;22;20421;-60
2021/05/20 13:22:10;;;;;;;9.27;8.47;;;20.40;52.80;;;;;;6280069;22;20421;-60
2021/05/20 13:23:30;;;;;;;7.07;6.50;;;19.60;53.00;;;;;;6278710;22;20440;-60
2021/05/20 13:25:57;;;;;;;7.00;6.47;;;19.00;55.50;;;;;;6278810;22;20470;-58
2021/05/20 14:06:15;;;;;;;6.80;6.30;;;19.00;57.30;;;;;;6271392;22;20769;-56
2021/05/20 14:08:46;;;;;;;7.43;5.80;;;18.90;57.20;;;;;;6279388;22;20424;-59